sensor_id;sensor_type;location;lat;lon;timestamp;temperature;humidity
22532;DHT22;11432;46.924;7.114;2024-01-10T06:52:20;-3.20;99.90
22532;DHT22;11432;46.924;7.114;2024-01-10T06:54:45;-3.20;99.90
22532;DHT22;11432;46.924;7.114;2024-01-10T06:57:12;-3.20;99.90
22532;DHT22;11432;46.924;7.114;2024-01-10T06:59:37;-3.20;99.90
22532;DHT22;11432;46.924;7.114;2024-01-10T07:02:03;-3.30;99.90
22532;DHT22;11432;46.924;7.114;2024-01-10T07:04:30;-3.30;99.90
22532;DHT22;11432;46.924;7.114;2024-01-10T07:06:57;-3.30;99.90
22532;DHT22;11432;46.924;7.114;2024-01-10T07:09:23;-3.30;99.90
22532;DHT22;11432;46.924;7.114;2024-01-10T07:11:49;-3.30;99.90
22532;DHT22;11432;46.924;7.114;2024-01-10T07:14:15;-3.30;99.90
22532;DHT22;11432;46.924;7.114;2024-01-10T07:16:41;-3.30;99.90
22532;DHT22;11432;46.924;7.114;2024-01-10T07:19:12;-3.30;99.90
22532;DHT22;11432;46.924;7.114;2024-01-10T07:21:39;-3.30;99.90
22532;DHT22;11432;46.924;7.114;2024-01-10T07:24:06;-3.30;99.90
22532;DHT22;11432;46.924;7.114;2024-01-10T07:26:32;-3.30;99.90
22532;DHT22;11432;46.924;7.114;2024-01-10T07:28:57;-3.30;99.90
22532;DHT22;11432;46.924;7.114;2024-01-10T07:31:23;-3.30;99.90
22532;DHT22;11432;46.924;7.114;2024-01-10T07:33:49;-3.30;99.90
22532;DHT22;11432;46.924;7.114;2024-01-10T07:36:15;-3.30;99.90
22532;DHT22;11432;46.924;7.114;2024-01-10T07:38:40;-3.20;99.90
22532;DHT22;11432;46.924;7.114;2024-01-10T07:41:06;-3.30;99.90
22532;DHT22;11432;46.924;7.114;2024-01-10T07:43:31;-3.30;99.90
22532;DHT22;11432;46.924;7.114;2024-01-10T07:45:57;-3.20;99.90
22532;DHT22;11432;46.924;7.114;2024-01-10T07:48:22;-3.20;99.90
22532;DHT22;11432;46.924;7.114;2024-01-10T07:50:48;-3.20;99.90
22532;DHT22;11432;46.924;7.114;2024-01-10T07:53:14;-1.50;99.90
22532;DHT22;11432;46.924;7.114;2024-01-10T07:55:40;-0.30;99.90
22532;DHT22;11432;46.924;7.114;2024-01-10T07:58:06;0.50;99.90
22532;DHT22;11432;46.924;7.114;2024-01-10T08:00:31;0.20;77.80
22532;DHT22;11432;46.924;7.114;2024-01-10T08:02:57;-0.70;1.00
22532;DHT22;11432;46.924;7.114;2024-01-10T08:05:23;-1.50;1.00
22532;DHT22;11432;46.924;7.114;2024-01-10T08:07:49;-2.10;99.90
22532;DHT22;11432;46.924;7.114;2024-01-10T08:10:15;-2.20;1.00
22532;DHT22;11432;46.924;7.114;2024-01-10T08:12:40;-2.40;1.00
22532;DHT22;11432;46.924;7.114;2024-01-10T08:15:07;-2.50;1.00
22532;DHT22;11432;46.924;7.114;2024-01-10T08:17:33;-2.50;1.00
22532;DHT22;11432;46.924;7.114;2024-01-10T08:19:59;-2.60;1.00
22532;DHT22;11432;46.924;7.114;2024-01-10T08:22:26;-2.50;1.00
22532;DHT22;11432;46.924;7.114;2024-01-10T08:24:51;-2.40;1.00
22532;DHT22;11432;46.924;7.114;2024-01-10T08:27:17;-2.40;1.00
22532;DHT22;11432;46.924;7.114;2024-01-10T08:29:43;-2.30;1.00
22532;DHT22;11432;46.924;7.114;2024-01-10T08:32:10;-2.20;1.00
22532;DHT22;11432;46.924;7.114;2024-01-10T08:34:36;-2.10;1.00
22532;DHT22;11432;46.924;7.114;2024-01-10T08:37:01;-2.00;1.00
22532;DHT22;11432;46.924;7.114;2024-01-10T08:39:27;-1.90;1.00
22532;DHT22;11432;46.924;7.114;2024-01-10T08:41:58;-1.80;1.00
22532;DHT22;11432;46.924;7.114;2024-01-10T08:44:24;-1.70;1.00
22532;DHT22;11432;46.924;7.114;2024-01-10T08:46:49;-0.70;1.00
22532;DHT22;11432;46.924;7.114;2024-01-10T08:49:18;-1.40;99.90
22532;DHT22;11432;46.924;7.114;2024-01-10T08:51:44;-1.30;99.90
22532;DHT22;11432;46.924;7.114;2024-01-10T08:54:12;-1.10;1.00
22532;DHT22;11432;46.924;7.114;2024-01-10T08:56:45;-1.10;1.00
22532;DHT22;11432;46.924;7.114;2024-01-10T08:59:11;-1.00;1.00
22532;DHT22;11432;46.924;7.114;2024-01-10T09:01:37;-1.00;1.00
22532;DHT22;11432;46.924;7.114;2024-01-10T09:04:04;-0.90;1.00
22532;DHT22;11432;46.924;7.114;2024-01-10T09:06:31;-0.80;1.00
22532;DHT22;11432;46.924;7.114;2024-01-10T09:08:57;-0.70;1.00
22532;DHT22;11432;46.924;7.114;2024-01-10T09:11:23;-0.60;99.90
22532;DHT22;11432;46.924;7.114;2024-01-10T09:13:50;-0.60;99.90
22532;DHT22;11432;46.924;7.114;2024-01-10T09:16:16;-0.50;99.90
22532;DHT22;11432;46.924;7.114;2024-01-10T09:18:44;-0.40;99.90
22532;DHT22;11432;46.924;7.114;2024-01-10T09:21:09;-0.30;99.90
22532;DHT22;11432;46.924;7.114;2024-01-10T09:23:35;-0.20;1.00
22532;DHT22;11432;46.924;7.114;2024-01-10T09:26:02;-0.20;1.00
22532;DHT22;11432;46.924;7.114;2024-01-10T09:28:28;-0.20;99.90
22532;DHT22;11432;46.924;7.114;2024-01-10T09:30:53;-0.30;99.90
22532;DHT22;11432;46.924;7.114;2024-01-10T09:33:20;-0.30;99.90
22532;DHT22;11432;46.924;7.114;2024-01-10T09:35:46;-0.20;1.00
22532;DHT22;11432;46.924;7.114;2024-01-10T09:38:12;-0.20;1.00
22532;DHT22;11432;46.924;7.114;2024-01-10T09:40:38;-0.40;1.00
22532;DHT22;11432;46.924;7.114;2024-01-10T09:43:05;-0.30;1.00
22532;DHT22;11432;46.924;7.114;2024-01-10T09:45:35;-0.30;1.00
22532;DHT22;11432;46.924;7.114;2024-01-10T09:48:01;-0.30;1.00
22532;DHT22;11432;46.924;7.114;2024-01-10T09:50:27;-0.40;99.90
22532;DHT22;11432;46.924;7.114;2024-01-10T09:52:58;-0.30;99.90
22532;DHT22;11432;46.924;7.114;2024-01-10T09:55:36;-0.20;99.90
22532;DHT22;11432;46.924;7.114;2024-01-10T09:58:04;-0.20;99.90
22532;DHT22;11432;46.924;7.114;2024-01-10T10:00:32;-0.30;99.90
22532;DHT22;11432;46.924;7.114;2024-01-10T10:02:59;-0.20;99.90
22532;DHT22;11432;46.924;7.114;2024-01-10T10:05:26;-0.10;99.90
22532;DHT22;11432;46.924;7.114;2024-01-10T10:07:52;-0.10;99.90
22532;DHT22;11432;46.924;7.114;2024-01-10T10:10:21;-0.10;1.00
22532;DHT22;11432;46.924;7.114;2024-01-10T10:12:47;-0.10;1.00
22532;DHT22;11432;46.924;7.114;2024-01-10T10:15:18;-0.20;1.00
22532;DHT22;11432;46.924;7.114;2024-01-10T10:17:45;-0.10;1.00
22532;DHT22;11432;46.924;7.114;2024-01-10T10:20:30;-0.10;1.00
22532;DHT22;11432;46.924;7.114;2024-01-10T10:23:05;-0.20;6.80
22532;DHT22;11432;46.924;7.114;2024-01-10T10:25:36;-0.20;99.90
22532;DHT22;11432;46.924;7.114;2024-01-10T10:28:03;-0.20;45.90
22532;DHT22;11432;46.924;7.114;2024-01-10T10:30:31;-0.20;99.90
22532;DHT22;11432;46.924;7.114;2024-01-10T10:32:57;-0.30;1.00
22532;DHT22;11432;46.924;7.114;2024-01-10T10:35:23;-0.20;1.00
22532;DHT22;11432;46.924;7.114;2024-01-10T10:37:50;-0.20;1.00
22532;DHT22;11432;46.924;7.114;2024-01-10T10:40:17;-0.20;1.00
22532;DHT22;11432;46.924;7.114;2024-01-10T10:42:48;-0.20;1.00
22532;DHT22;11432;46.924;7.114;2024-01-10T10:47:47;-0.20;1.00
22532;DHT22;11432;46.924;7.114;2024-01-10T10:50:22;-1.30;1.00
22532;DHT22;11432;46.924;7.114;2024-01-10T10:52:50;0.00;1.00
22532;DHT22;11432;46.924;7.114;2024-01-10T10:55:16;0.10;1.00
22532;DHT22;11432;46.924;7.114;2024-01-10T10:57:47;0.10;1.00
22532;DHT22;11432;46.924;7.114;2024-01-10T11:00:14;0.30;99.90
22532;DHT22;11432;46.924;7.114;2024-01-10T11:05:09;0.40;99.90
22532;DHT22;11432;46.924;7.114;2024-01-10T11:07:39;0.40;99.90
22532;DHT22;11432;46.924;7.114;2024-01-10T11:10:08;0.50;99.90
22532;DHT22;11432;46.924;7.114;2024-01-10T11:15:53;0.70;1.00
22532;DHT22;11432;46.924;7.114;2024-01-10T11:23:58;0.80;99.90
22532;DHT22;11432;46.924;7.114;2024-01-10T11:26:25;0.90;26.20
22532;DHT22;11432;46.924;7.114;2024-01-10T11:31:30;0.80;1.00
22532;DHT22;11432;46.924;7.114;2024-01-10T11:33:59;0.80;99.90
22532;DHT22;11432;46.924;7.114;2024-01-10T11:36:25;1.00;99.90
22532;DHT22;11432;46.924;7.114;2024-01-10T11:46:52;1.30;1.00
22532;DHT22;11432;46.924;7.114;2024-01-10T11:49:19;1.10;80.70
22532;DHT22;11432;46.924;7.114;2024-01-10T11:51:46;0.90;99.90
22532;DHT22;11432;46.924;7.114;2024-01-10T11:54:12;1.00;1.00
22532;DHT22;11432;46.924;7.114;2024-01-10T11:56:40;0.90;99.90
22532;DHT22;11432;46.924;7.114;2024-01-10T11:59:10;1.30;1.00
22532;DHT22;11432;46.924;7.114;2024-01-10T12:01:39;2.00;1.00
22532;DHT22;11432;46.924;7.114;2024-01-10T12:04:06;2.00;1.00
22532;DHT22;11432;46.924;7.114;2024-01-10T12:06:33;1.20;99.90
22532;DHT22;11432;46.924;7.114;2024-01-10T12:08:59;1.00;99.90
22532;DHT22;11432;46.924;7.114;2024-01-10T12:11:28;0.90;99.90
22532;DHT22;11432;46.924;7.114;2024-01-10T12:16:23;1.30;99.90
22532;DHT22;11432;46.924;7.114;2024-01-10T12:18:48;1.50;99.90
22532;DHT22;11432;46.924;7.114;2024-01-10T12:26:09;1.70;1.00
22532;DHT22;11432;46.924;7.114;2024-01-10T12:28:37;1.50;1.00
22532;DHT22;11432;46.924;7.114;2024-01-10T12:31:06;1.40;1.00
22532;DHT22;11432;46.924;7.114;2024-01-10T12:33:36;1.40;1.00
22532;DHT22;11432;46.924;7.114;2024-01-10T12:36:11;1.40;99.90
22532;DHT22;11432;46.924;7.114;2024-01-10T12:38:40;1.30;99.90
22532;DHT22;11432;46.924;7.114;2024-01-10T12:48:30;1.10;99.90
22532;DHT22;11432;46.924;7.114;2024-01-10T12:50:55;0.70;1.00
22532;DHT22;11432;46.924;7.114;2024-01-10T12:53:21;0.80;99.90
22532;DHT22;11432;46.924;7.114;2024-01-10T12:55:47;0.80;1.00
22532;DHT22;11432;46.924;7.114;2024-01-10T13:03:05;1.00;1.00
22532;DHT22;11432;46.924;7.114;2024-01-10T13:05:31;1.00;1.00
22532;DHT22;11432;46.924;7.114;2024-01-10T13:07:57;1.20;99.90
22532;DHT22;11432;46.924;7.114;2024-01-10T13:12:48;1.00;1.00
22532;DHT22;11432;46.924;7.114;2024-01-10T13:15:14;0.90;99.90
22532;DHT22;11432;46.924;7.114;2024-01-10T13:17:40;0.90;99.90
22532;DHT22;11432;46.924;7.114;2024-01-10T13:20:06;0.90;99.90
22532;DHT22;11432;46.924;7.114;2024-01-10T13:22:31;0.90;1.00
22532;DHT22;11432;46.924;7.114;2024-01-10T13:24:57;0.90;1.00
22532;DHT22;11432;46.924;7.114;2024-01-10T13:27:23;0.90;99.90
22532;DHT22;11432;46.924;7.114;2024-01-10T13:29:48;0.90;99.90
22532;DHT22;11432;46.924;7.114;2024-01-10T13:32:14;0.90;1.00
22532;DHT22;11432;46.924;7.114;2024-01-10T13:34:41;0.90;1.00
22532;DHT22;11432;46.924;7.114;2024-01-10T13:37:06;0.90;1.00
22532;DHT22;11432;46.924;7.114;2024-01-10T13:41:59;1.20;1.00
22532;DHT22;11432;46.924;7.114;2024-01-10T13:44:24;1.00;1.00
22532;DHT22;11432;46.924;7.114;2024-01-10T13:46:50;1.00;99.90
22532;DHT22;11432;46.924;7.114;2024-01-10T13:49:16;1.10;1.00
22532;DHT22;11432;46.924;7.114;2024-01-10T13:51:42;1.00;99.90
22532;DHT22;11432;46.924;7.114;2024-01-10T13:54:09;1.00;99.90
22532;DHT22;11432;46.924;7.114;2024-01-10T13:56:35;1.00;99.90
22532;DHT22;11432;46.924;7.114;2024-01-10T13:59:01;1.00;99.90
22532;DHT22;11432;46.924;7.114;2024-01-10T14:01:26;1.10;99.90
22532;DHT22;11432;46.924;7.114;2024-01-10T14:03:52;1.20;1.00
22532;DHT22;11432;46.924;7.114;2024-01-10T14:06:18;1.30;1.00
22532;DHT22;11432;46.924;7.114;2024-01-10T14:08:43;1.30;1.00
22532;DHT22;11432;46.924;7.114;2024-01-10T14:11:11;1.20;1.00
22532;DHT22;11432;46.924;7.114;2024-01-10T14:13:37;1.10;1.00
22532;DHT22;11432;46.924;7.114;2024-01-10T14:16:03;0.80;1.00
22532;DHT22;11432;46.924;7.114;2024-01-10T14:18:28;0.90;1.00
22532;DHT22;11432;46.924;7.114;2024-01-10T14:20:54;0.90;99.90
22532;DHT22;11432;46.924;7.114;2024-01-10T14:25:46;0.70;99.90
22532;DHT22;11432;46.924;7.114;2024-01-10T14:30:37;0.80;1.00
22532;DHT22;11432;46.924;7.114;2024-01-10T14:33:03;0.50;1.00
22532;DHT22;11432;46.924;7.114;2024-01-10T14:35:29;0.50;99.90
22532;DHT22;11432;46.924;7.114;2024-01-10T14:37:55;0.50;1.00
22532;DHT22;11432;46.924;7.114;2024-01-10T14:40:20;0.60;83.80
22532;DHT22;11432;46.924;7.114;2024-01-10T14:45:15;0.50;99.90
22532;DHT22;11432;46.924;7.114;2024-01-10T14:47:40;0.60;99.90
22532;DHT22;11432;46.924;7.114;2024-01-10T14:50:06;0.60;99.90
22532;DHT22;11432;46.924;7.114;2024-01-10T15:04:45;0.60;1.00
22532;DHT22;11432;46.924;7.114;2024-01-10T15:07:10;0.80;1.00
22532;DHT22;11432;46.924;7.114;2024-01-10T15:12:04;0.30;1.00
22532;DHT22;11432;46.924;7.114;2024-01-10T15:14:34;0.40;1.00
22532;DHT22;11432;46.924;7.114;2024-01-10T15:19:30;0.40;1.00
22532;DHT22;11432;46.924;7.114;2024-01-10T15:21:55;0.30;1.00
22532;DHT22;11432;46.924;7.114;2024-01-10T15:24:21;0.50;1.00
22532;DHT22;11432;46.924;7.114;2024-01-10T15:26:47;0.20;1.00
22532;DHT22;11432;46.924;7.114;2024-01-10T15:36:31;0.10;1.00
22532;DHT22;11432;46.924;7.114;2024-01-10T15:38:57;0.30;1.00
22532;DHT22;11432;46.924;7.114;2024-01-10T15:46:18;0.00;1.00
22532;DHT22;11432;46.924;7.114;2024-01-10T15:48:47;0.00;31.10
22532;DHT22;11432;46.924;7.114;2024-01-10T15:51:13;1.20;82.50
22532;DHT22;11432;46.924;7.114;2024-01-10T15:56:05;0.10;70.60
22532;DHT22;11432;46.924;7.114;2024-01-10T16:00:58;-0.10;53.30
22532;DHT22;11432;46.924;7.114;2024-01-10T16:03:24;-0.10;93.80
22532;DHT22;11432;46.924;7.114;2024-01-10T16:05:49;-0.20;99.90
22532;DHT22;11432;46.924;7.114;2024-01-10T16:08:18;-0.10;99.90
22532;DHT22;11432;46.924;7.114;2024-01-10T16:13:11;-0.20;99.90
22532;DHT22;11432;46.924;7.114;2024-01-10T16:15:38;-0.20;99.90
22532;DHT22;11432;46.924;7.114;2024-01-10T16:18:04;-0.30;99.90
22532;DHT22;11432;46.924;7.114;2024-01-10T16:20:29;-0.20;99.90
22532;DHT22;11432;46.924;7.114;2024-01-10T16:35:06;-0.30;99.90
22532;DHT22;11432;46.924;7.114;2024-01-10T16:37:32;-0.40;99.90
22532;DHT22;11432;46.924;7.114;2024-01-10T16:42:24;-0.40;99.90
22532;DHT22;11432;46.924;7.114;2024-01-10T16:44:49;-0.30;99.90
22532;DHT22;11432;46.924;7.114;2024-01-10T16:49:41;-0.20;99.90
22532;DHT22;11432;46.924;7.114;2024-01-10T16:52:06;-0.20;99.90
22532;DHT22;11432;46.924;7.114;2024-01-10T16:54:32;-0.20;99.90
22532;DHT22;11432;46.924;7.114;2024-01-10T16:56:58;-0.20;99.90
22532;DHT22;11432;46.924;7.114;2024-01-10T17:09:07;-0.20;99.90
22532;DHT22;11432;46.924;7.114;2024-01-10T17:11:33;-0.30;99.90
22532;DHT22;11432;46.924;7.114;2024-01-10T17:13:58;-0.20;99.90
22532;DHT22;11432;46.924;7.114;2024-01-10T17:16:24;-0.30;99.90
22532;DHT22;11432;46.924;7.114;2024-01-10T17:18:50;-0.40;99.90
22532;DHT22;11432;46.924;7.114;2024-01-10T17:45:36;-0.60;99.90
22532;DHT22;11432;46.924;7.114;2024-01-10T17:48:03;-0.50;99.90
22532;DHT22;11432;46.924;7.114;2024-01-10T17:50:29;-0.60;99.90
22532;DHT22;11432;46.924;7.114;2024-01-10T18:02:41;-0.50;99.90
22532;DHT22;11432;46.924;7.114;2024-01-10T18:05:07;-0.60;99.90
22532;DHT22;11432;46.924;7.114;2024-01-10T18:22:10;-0.80;99.90
22532;DHT22;11432;46.924;7.114;2024-01-10T18:24:36;-0.70;99.90
22532;DHT22;11432;46.924;7.114;2024-01-10T18:27:01;-0.60;99.90
22532;DHT22;11432;46.924;7.114;2024-01-10T18:29:27;-0.50;99.90
22532;DHT22;11432;46.924;7.114;2024-01-10T18:41:38;-0.80;99.90
22532;DHT22;11432;46.924;7.114;2024-01-10T18:46:29;-0.60;99.90
22532;DHT22;11432;46.924;7.114;2024-01-10T18:48:55;-0.70;99.90
22532;DHT22;11432;46.924;7.114;2024-01-10T18:56:13;-0.70;99.90
22532;DHT22;11432;46.924;7.114;2024-01-10T19:08:24;-0.80;99.90
22532;DHT22;11432;46.924;7.114;2024-01-10T19:15:43;-0.80;99.90
22532;DHT22;11432;46.924;7.114;2024-01-10T19:32:48;-0.90;99.90
22532;DHT22;11432;46.924;7.114;2024-01-10T19:35:14;-1.00;99.90
22532;DHT22;11432;46.924;7.114;2024-01-10T19:40:06;-0.80;99.90
22532;DHT22;11432;46.924;7.114;2024-01-10T19:42:32;-0.80;99.90
22532;DHT22;11432;46.924;7.114;2024-01-10T19:47:24;-1.00;99.90
22532;DHT22;11432;46.924;7.114;2024-01-10T19:54:42;-0.80;99.90
22532;DHT22;11432;46.924;7.114;2024-01-10T19:57:08;-0.80;99.90
22532;DHT22;11432;46.924;7.114;2024-01-10T20:21:28;-0.80;99.90
22532;DHT22;11432;46.924;7.114;2024-01-10T20:23:57;-0.70;99.90
22532;DHT22;11432;46.924;7.114;2024-01-10T20:26:22;-0.80;99.90
22532;DHT22;11432;46.924;7.114;2024-01-10T20:40:58;-0.70;99.90
22532;DHT22;11432;46.924;7.114;2024-01-10T20:43:24;-0.70;99.90
22532;DHT22;11432;46.924;7.114;2024-01-10T20:45:52;-0.50;99.90
22532;DHT22;11432;46.924;7.114;2024-01-10T20:50:43;-1.00;99.90
22532;DHT22;11432;46.924;7.114;2024-01-10T20:53:09;-0.80;99.90
22532;DHT22;11432;46.924;7.114;2024-01-10T20:55:40;-0.60;99.90
22532;DHT22;11432;46.924;7.114;2024-01-10T21:00:31;-0.60;99.90
22532;DHT22;11432;46.924;7.114;2024-01-10T21:03:00;-0.70;99.90
22532;DHT22;11432;46.924;7.114;2024-01-10T21:05:25;-0.80;99.90
22532;DHT22;11432;46.924;7.114;2024-01-10T21:07:51;-0.70;99.90
22532;DHT22;11432;46.924;7.114;2024-01-10T21:12:43;-0.60;99.90
22532;DHT22;11432;46.924;7.114;2024-01-10T21:24:53;-0.70;99.90
22532;DHT22;11432;46.924;7.114;2024-01-10T21:27:20;-0.70;99.90
22532;DHT22;11432;46.924;7.114;2024-01-10T21:29:46;-0.80;99.90
22532;DHT22;11432;46.924;7.114;2024-01-10T21:32:12;-0.70;99.90
22532;DHT22;11432;46.924;7.114;2024-01-10T21:34:38;-0.70;99.90
22532;DHT22;11432;46.924;7.114;2024-01-10T21:46:48;-0.90;99.90
22532;DHT22;11432;46.924;7.114;2024-01-10T21:58:58;-1.00;99.90
22532;DHT22;11432;46.924;7.114;2024-01-10T22:06:17;-1.00;99.90
22532;DHT22;11432;46.924;7.114;2024-01-10T22:08:43;-0.70;99.90
22532;DHT22;11432;46.924;7.114;2024-01-10T22:11:09;-0.60;99.90
22532;DHT22;11432;46.924;7.114;2024-01-10T22:16:03;-0.60;99.90
22532;DHT22;11432;46.924;7.114;2024-01-10T22:18:28;-0.70;99.90
22532;DHT22;11432;46.924;7.114;2024-01-10T22:20:55;-1.00;99.90
22532;DHT22;11432;46.924;7.114;2024-01-10T22:23:21;-0.60;99.90
22532;DHT22;11432;46.924;7.114;2024-01-10T22:25:47;-0.70;99.90
22532;DHT22;11432;46.924;7.114;2024-01-10T22:28:13;-0.60;99.90
22532;DHT22;11432;46.924;7.114;2024-01-10T22:30:38;-0.80;99.90
22532;DHT22;11432;46.924;7.114;2024-01-10T22:35:30;-0.60;99.90
22532;DHT22;11432;46.924;7.114;2024-01-10T23:04:42;-0.70;99.90
22532;DHT22;11432;46.924;7.114;2024-01-10T23:09:34;-0.80;99.90
22532;DHT22;11432;46.924;7.114;2024-01-10T23:12:00;-0.80;99.90
22532;DHT22;11432;46.924;7.114;2024-01-10T23:14:25;-0.70;99.90
22532;DHT22;11432;46.924;7.114;2024-01-10T23:16:51;-0.80;99.90
22532;DHT22;11432;46.924;7.114;2024-01-10T23:26:34;-0.70;99.90
22532;DHT22;11432;46.924;7.114;2024-01-10T23:29:02;-0.70;99.90
22532;DHT22;11432;46.924;7.114;2024-01-10T23:31:27;-0.70;99.90
22532;DHT22;11432;46.924;7.114;2024-01-10T23:33:53;-0.70;99.90
22532;DHT22;11432;46.924;7.114;2024-01-10T23:43:36;-0.90;99.90
22532;DHT22;11432;46.924;7.114;2024-01-10T23:46:02;-1.10;99.90
22532;DHT22;11432;46.924;7.114;2024-01-10T23:48:28;-0.70;99.90
22532;DHT22;11432;46.924;7.114;2024-01-10T23:50:54;-0.80;99.90
22532;DHT22;11432;46.924;7.114;2024-01-10T23:53:21;-0.60;99.90
